Elysian, Minnesota
Current Conditions -  °F | °C
As of 11:15 PM on Monday 22 Dec 2014 (Local Time) from KACQ Reporting Station
Light Rain Light Rain  
Wind Chill: 26°   Ceiling: 600
Heat Index: 34°   Visibility: 3mi
Dew Point: 32°   Wind: 10mph
Humidity: 93%   Direction: 60°ENE
Pressure: 29.57"   Gusts: NA
Location:  44.2°N, 93.67°W
Report Text: KACQ 230515Z AUTO 06009KT 3SM -RA OVC006 01/00 A2957 RMK AO2
Loading
Personal Weather Stations






























Interactive Weather Map New forecast layout! Learn more

10-Day Weather Forecast

Advertisements
Track Severe Weather on mobile